Dauntless Aviation
Greetings, Guest! To participate, [sign up for a free account] or [log in]
Airports North America United States Colorado
98CO

NCMC HELIPORT

GREELEY, CO, USA

Airport Info

Location

Latitude / Longitude: 40°24'53"N / 104°42'28"W
  40°24.9'N / 104°42.4667'W
  40.4150 / -104.7078
Elevation: 4882 ft. (estimated)
Variation: 12E (1985)
From city: 00 miles N of GREELEY, CO

Operations

Facility use: Private
Sectional chart: DENVER
Control tower: no
Boundary ARTCC: DENVER
FSS: DENVER [1-800-WX-BRIEF]
Segmented circle: no

Communications

Nearby radio navigation aids

VOR radial/distance VOR name Freq Var
GLL 233oT/8.9 GILL VORTAC 114.20 13E
DVV 353oT/31.5 MILE HIGH VORTAC 114.70 11E
BJC 33oT/36.1 JEFFCO VOR/DME 115.40 11E
DEN 357oT/36.2 DENVER VOR/DME 117.90 11E
 
NDB name Hdg/Dist Freq Var ID

Services

Runway Information

Helipad H1

Dimensions: 40 x 40 ft.
Surface: PORTLAND CEMENT CONCRETE,NO SPECIAL SURFACE TREATMENT
 

Additional Remarks

Instrument Procedures

No published instrument procedures available
Topographic chart at:
Satellite photo at:
Airport distance calculator
From:
Weather Reports

METAR

KGXY
4.2nm NE
KGXY 020555Z AUTO 10006KT 10SM CLR 21/11 A3007 RMK AO1 10340 20200 52010
KFNL
14.3nm W
KFNL 020555Z AUTO 36007KT 10SM CLR 21/13 A3009 RMK AO1 10330 20210 52017
KLMO
25.8nm SW
KLMO 020555Z AUTO 35005KT 10SM CLR 23/12 A3009 RMK AO2 T02300116 PWINO
KEIK
28.6nm S
KEIK 020555Z AUTO 26006KT 10SM CLR 20/10 A3007 RMK AO2 T01990104 10320 20196 403490138
KBDU
33.3nm SW
KBDU 020559Z AUTO 00000KT 10SM CLR 22/08 A3008 RMK AO2
KDEN
35.0nm SE
KDEN 020553Z 17011KT 10SM SCT150 BKN220 23/08 A3010 RMK AO2 SLP096 T02330078 10339 20222 51005

TAF

KDEN
35.0nm SE
KDEN 020520Z 0206/0312 18015KT P6SM SCT150 BKN220 FM020800 20012KT P6SM FEW150 BKN220 FM021200 24009KT P6SM FEW140 SCT220 FM021400 31007KT P6SM FEW100 SCT150 FM021800 06006KT P6SM FEW080 SCT220 FM022200 11010KT P6SM VCTS SCT080CB BKN120 FM030300 16014KT P6SM SCT080 BKN120 FM030500 20012KT P6SM FEW090 SCT140
KBJC
35.3nm S
KBJC 020520Z 0206/0306 32004KT P6SM SCT120 BKN200 FM021300 VRB05KT P6SM FEW150 SCT220 FM021800 08006KT P6SM FEW090 SCT220 FM022100 08007KT P6SM VCTS SCT080CB BKN120 FM030200 16012KT P6SM SCT080 BKN120 FM030500 23008KT P6SM FEW090 SCT140
Safelog

 

Dauntless Aviation

© 2007-2015 Dauntless Aviation, all rights reserved
Information provided via PilotNav comes from a variety of official and unofficial data sources. As errors are possible, do not use PilotNav for primary flight planning purposes. Verify any information that you receive via PilotNav with current and canonical charts and other official documents. The material in this database is subject to database copyrights held by Dauntless Aviation and may not be copied without the express permission of Dauntless Aviation - licenses for use of part of all of this data are available for purchase; enquire via the Dauntless Aviation helpdesk. A number of mechanisms and markers exist in the database to protect against and identify infringement / copyright. Automated queries against this website are stictly prohibited, and all activity is logged and analyzed.